Sti Virtus — V7AY4 — position and weather

sailwx.info

Track history (hours):
 
Tides and Currents Weather Stations Pressure Air Temp Water Temp Dewpoint Dewpoint Depression Visibility Wind Speed Wind Dir Waves Ship Positions

Sti Virtus

Last reported at 2018-Jun-12 14:05 UTC. Time now 2018-Jun-20 15:08 UTC.
Position N 01°20' E 104°44'.
Warning: this ship's position is 8 days out of date.

Length 183 m; draft 11.3 m.

Type: Tanker. MMSI: 538005171.

Date/timePositionNaut miles runAvg speedWind from/ knotsBaromVisibWave heightAir tempDewpointWater temp
2018-Jun-12 14:05N 01°20' E 104°44'1510.7
2018-Jun-12 12:40N 01°23' E 104°29'411.1
2018-Jun-12 12:19N 01°22' E 104°25'311.2
2018-Jun-12 12:00N 01°19' E 104°22'610.3
2018-Jun-12 11:27N 01°16' E 104°17'511.1
2018-Jun-12 10:58N 01°16' E 104°12'511.3
2018-Jun-12 10:29N 01°15' E 104°07'510.8
2018-Jun-12 10:00N 01°14' E 104°01'5 9.8
2018-Jun-12 09:30N 01°15' E 103°57'2 3.3
2018-Jun-12 09:00N 01°16' E 103°55'0 0.2
2018-Jun-12 08:30N 01°16' E 103°55'2 3.5
2018-Jun-12 08:00N 01°14' E 103°54'4 8.3
2018-Jun-12 07:30N 01°12' E 103°50'5 9.4
2018-Jun-12 07:00N 01°15' E 103°46'4 8.3
2018-Jun-12 06:30N 01°14' E 103°42'1 1.8
2018-Jun-12 05:55N 01°15' E 103°41'0 0.0
2018-Jun-12 05:22N 01°15' E 103°41'0 0.0
2018-Jun-12 04:59N 01°15' E 103°41'0 0.1
2018-Jun-12 04:28N 01°15' E 103°41'0 0.0
2018-Jun-12 03:52N 01°15' E 103°41'0 0.1
2018-Jun-12 03:10N 01°15' E 103°41'0 0.1
2018-Jun-12 02:46N 01°15' E 103°41'0 0.0
2018-Jun-12 02:22N 01°15' E 103°41'0 0.1
2018-Jun-12 01:53N 01°15' E 103°41'0 0.1
2018-Jun-12 01:28N 01°15' E 103°41'0 0.1
2018-Jun-12 00:46N 01°15' E 103°41'0 0.1
2018-Jun-12 00:07N 01°15' E 103°41'0 0.2
2018-Jun-11 23:49N 01°15' E 103°41'0 0.0
2018-Jun-11 23:25N 01°15' E 103°41'0 0.1
2018-Jun-11 22:58N 01°15' E 103°41'0 0.1
2018-Jun-11 22:28N 01°15' E 103°41'0 0.0
2018-Jun-11 21:52N 01°15' E 103°41'0 0.2
2018-Jun-11 21:28N 01°15' E 103°41'0 0.1
2018-Jun-11 20:55N 01°15' E 103°41'0 0.0
2018-Jun-11 20:22N 01°15' E 103°41'0 0.1
2018-Jun-11 19:52N 01°15' E 103°41'0 0.0
2018-Jun-11 19:19N 01°15' E 103°41'0 0.1
2018-Jun-11 18:28N 01°15' E 103°41'0 0.1
2018-Jun-11 17:19N 01°15' E 103°41'0 0.0
2018-Jun-11 16:59N 01°15' E 103°41'0 0.0
2018-Jun-11 16:28N 01°15' E 103°41'0 0.0
2018-Jun-11 15:59N 01°15' E 103°41'0 0.1
2018-Jun-11 15:10N 01°15' E 103°41'0 0.0
2018-Jun-11 14:58N 01°15' E 103°41'0 0.0
2018-Jun-11 14:28N 01°15' E 103°41'0 0.1
2018-Jun-11 13:53N 01°15' E 103°41'0 0.0
2018-Jun-11 13:22N 01°15' E 103°41'0 0.0
2018-Jun-11 12:58N 01°15' E 103°41'0 0.1
2018-Jun-11 12:22N 01°15' E 103°41'0 0.0
2018-Jun-11 11:25N 01°15' E 103°41'0 0.1
2018-Jun-11 10:49N 01°15' E 103°41'0 0.1
2018-Jun-11 10:10N 01°15' E 103°41'0 0.3
2018-Jun-11 09:59N 01°15' E 103°41'0 0.1
2018-Jun-11 09:16N 01°15' E 103°41'0 0.2
2018-Jun-11 08:58N 01°15' E 103°41'0 0.0
2018-Jun-11 08:22N 01°15' E 103°41'0 0.0
2018-Jun-11 07:59N 01°15' E 103°41'0 0.0
2018-Jun-11 06:43N 01°15' E 103°41'0 0.0
2018-Jun-11 06:16N 01°15' E 103°41'0 0.2
2018-Jun-11 05:55N 01°15' E 103°41'0 0.1
2018-Jun-11 05:28N 01°15' E 103°41'0 0.0
2018-Jun-11 04:43N 01°15' E 103°41'0 0.0
2018-Jun-11 03:43N 01°15' E 103°41'0 0.0
2018-Jun-11 03:22N 01°15' E 103°41'0 0.2
2018-Jun-11 02:58N 01°15' E 103°41'0 0.1
2018-Jun-11 02:22N 01°15' E 103°41'0 0.0
2018-Jun-11 01:58N 01°15' E 103°41'0 0.1
2018-Jun-11 01:25N 01°15' E 103°41'0 0.1
2018-Jun-11 00:47N 01°15' E 103°41'0 0.1
2018-Jun-11 00:19N 01°15' E 103°41'0 0.1
2018-Jun-10 23:49N 01°15' E 103°41'0 0.0
2018-Jun-10 23:16N 01°15' E 103°41'0 0.0
2018-Jun-10 22:46N 01°15' E 103°41'0 0.0
2018-Jun-10 22:29N 01°15' E 103°41'0 0.0
2018-Jun-10 21:58N 01°15' E 103°41'0 0.1
2018-Jun-10 21:25N 01°15' E 103°41'0 0.1
2018-Jun-10 20:58N 01°15' E 103°41'0 0.1
2018-Jun-10 20:28N 01°15' E 103°41'0 0.1
2018-Jun-10 19:53N 01°15' E 103°41'0 0.1
2018-Jun-10 19:22N 01°15' E 103°41'0 0.2
2018-Jun-10 18:59N 01°15' E 103°41'0 0.1
2018-Jun-10 18:27N 01°15' E 103°41'0 0.1
2018-Jun-10 17:52N 01°15' E 103°41'0 0.2
2018-Jun-10 17:28N 01°15' E 103°41'0 0.1
2018-Jun-10 16:58N 01°15' E 103°41'0 0.0
2018-Jun-10 16:27N 01°15' E 103°41'0 0.1
2018-Jun-10 15:58N 01°15' E 103°41'0 0.0
2018-Jun-10 15:30N 01°15' E 103°41'1 2.7
2018-Jun-10 15:00N 01°14' E 103°42'2 5.1
2018-Jun-10 14:31N 01°15' E 103°39'3 3.3
2018-Jun-10 13:30N 01°17' E 103°42'0 0.0
2018-Jun-10 12:46N 01°17' E 103°42'0 0.0
2018-Jun-10 12:29N 01°17' E 103°42'0 0.0
2018-Jun-10 11:58N 01°17' E 103°42'0 0.0
2018-Jun-10 11:19N 01°17' E 103°42'0 0.0
2018-Jun-10 10:58N 01°17' E 103°42'0 0.0
2018-Jun-10 10:26N 01°17' E 103°42'0 0.0
2018-Jun-10 09:59N 01°17' E 103°42'0 0.0
2018-Jun-10 09:20N 01°17' E 103°42'0 0.0
2018-Jun-10 08:13N 01°17' E 103°42'0 0.0
2018-Jun-10 07:52N 01°17' E 103°42'0 0.0
2018-Jun-10 07:28N 01°17' E 103°42'0 0.0
2018-Jun-10 06:56N 01°17' E 103°42'0 0.0
2018-Jun-10 06:25N 01°17' E 103°42'0 0.0
2018-Jun-10 05:53N 01°17' E 103°42'0 0.0
2018-Jun-10 05:26N 01°17' E 103°42'0 0.0
2018-Jun-10 04:55N 01°17' E 103°42'0 0.0
2018-Jun-10 04:23N 01°17' E 103°42'0 0.0
2018-Jun-10 03:59N 01°17' E 103°42'0 0.0
2018-Jun-10 03:28N 01°17' E 103°42'0 0.0
2018-Jun-10 02:58N 01°17' E 103°42'0 0.0
2018-Jun-10 02:28N 01°17' E 103°42'0 0.0
2018-Jun-10 01:59N 01°17' E 103°42'0 0.0
2018-Jun-10 01:25N 01°17' E 103°42'0 0.0
2018-Jun-10 00:59N 01°17' E 103°42'0 0.0
2018-Jun-10 00:29N 01°17' E 103°42'0 0.0
2018-Jun-09 23:55N 01°17' E 103°42'0 0.0
2018-Jun-09 23:28N 01°17' E 103°42'0 0.0
2018-Jun-09 22:54N 01°17' E 103°42'0 0.0
2018-Jun-09 22:19N 01°17' E 103°42'0 0.0
2018-Jun-09 21:57N 01°17' E 103°42'0 0.0
2018-Jun-09 21:30N 01°17' E 103°42'0 0.0
2018-Jun-09 21:00N 01°17' E 103°42'0 0.0
2018-Jun-09 20:30N 01°17' E 103°42'0 0.0
2018-Jun-09 19:59N 01°17' E 103°42'0 0.0
2018-Jun-09 19:20N 01°17' E 103°42'0 0.0
2018-Jun-09 18:52N 01°17' E 103°42'0 0.0
2018-Jun-09 18:29N 01°17' E 103°42'0 0.0
2018-Jun-09 17:53N 01°17' E 103°42'0 0.0
2018-Jun-09 17:23N 01°17' E 103°42'0 0.0
2018-Jun-09 16:58N 01°17' E 103°42'0 0.0
2018-Jun-09 16:17N 01°17' E 103°42'0 0.0
2018-Jun-09 15:58N 01°17' E 103°42'0 0.0
2018-Jun-09 15:25N 01°17' E 103°42'0 0.0
2018-Jun-09 14:29N 01°17' E 103°42'0 0.0
2018-Jun-09 13:58N 01°17' E 103°42'0 0.0
2018-Jun-09 13:16N 01°17' E 103°42'0 0.0
2018-Jun-09 12:22N 01°17' E 103°42'0 0.0
2018-Jun-09 11:59N 01°17' E 103°42'0 0.0
2018-Jun-09 11:19N 01°17' E 103°42'0 0.0
2018-Jun-09 10:49N 01°17' E 103°42'0 0.0
2018-Jun-09 10:22N 01°17' E 103°42'0 0.0
2018-Jun-09 09:49N 01°17' E 103°42'0 0.0
2018-Jun-09 09:22N 01°17' E 103°42'0 0.0
2018-Jun-09 08:58N 01°17' E 103°42'0 0.0
2018-Jun-09 08:10N 01°17' E 103°42'0 0.0
2018-Jun-09 07:46N 01°17' E 103°42'0 0.0
2018-Jun-09 07:28N 01°17' E 103°42'0 0.0
2018-Jun-09 06:31N 01°17' E 103°42'0 0.0
2018-Jun-09 06:29N 01°17' E 103°42'0 0.0
2018-Jun-09 05:46N 01°17' E 103°42'0 0.0
2018-Jun-09 05:28N 01°17' E 103°42'0 0.0
2018-Jun-09 04:58N 01°17' E 103°42'0 0.0
2018-Jun-09 04:28N 01°17' E 103°42'0 0.0
2018-Jun-09 03:55N 01°17' E 103°42'0 0.0
2018-Jun-09 03:25N 01°17' E 103°42'0 0.0
2018-Jun-09 02:55N 01°17' E 103°42'0 0.0
2018-Jun-09 02:28N 01°17' E 103°42'0 0.0
2018-Jun-09 01:55N 01°17' E 103°42'0 0.0
2018-Jun-09 00:40N 01°17' E 103°42'0 0.0
2018-Jun-09 00:28N 01°17' E 103°42'0 0.0
2018-Jun-08 23:01N 01°17' E 103°42'0 0.0
2018-Jun-08 22:37N 01°17' E 103°42'0 0.0
2018-Jun-08 22:16N 01°17' E 103°42'0 0.0
2018-Jun-08 21:58N 01°17' E 103°42'0 0.0
2018-Jun-08 20:55N 01°17' E 103°42'0 0.0
2018-Jun-08 20:19N 01°17' E 103°42'0 0.0
2018-Jun-08 19:47N 01°17' E 103°42'0 0.0
2018-Jun-08 19:23N 01°17' E 103°42'0 0.0
2018-Jun-08 18:58N 01°17' E 103°42'0 0.0
2018-Jun-08 18:14N 01°17' E 103°42'0 0.0
2018-Jun-08 17:52N 01°17' E 103°42'0 0.0
2018-Jun-08 17:25N 01°17' E 103°42'0 0.0
2018-Jun-08 16:58N 01°17' E 103°42'0 0.0
2018-Jun-08 16:30N 01°17' E 103°42'0 0.0
2018-Jun-08 15:58N 01°17' E 103°42'0 0.1
2018-Jun-08 15:30N 01°17' E 103°42'1 1.6
2018-Jun-08 15:00N 01°18' E 103°41'3 5.6
2018-Jun-08 14:30N 01°16' E 103°39'4 7.1
2018-Jun-08 14:00N 01°13' E 103°41'1 1.3
2018-Jun-08 13:23N 01°12' E 103°41'0 0.2
2018-Jun-08 12:59N 01°12' E 103°42'0 0.2
2018-Jun-08 12:26N 01°12' E 103°42'0 0.1
2018-Jun-08 11:56N 01°12' E 103°42'0 0.0
2018-Jun-08 11:26N 01°12' E 103°42'0 0.1
2018-Jun-08 10:53N 01°12' E 103°42'0 0.1
2018-Jun-08 10:28N 01°12' E 103°42'0 0.0
2018-Jun-08 09:50N 01°12' E 103°42'0 0.1
2018-Jun-08 09:29N 01°12' E 103°42'0 0.1
2018-Jun-08 08:52N 01°12' E 103°42'0 0.0
2018-Jun-08 08:29N 01°12' E 103°42'0 0.1
2018-Jun-08 08:00N 01°12' E 103°42'2 3.2
2018-Jun-08 07:30N 01°13' E 103°40'4 7.7
2018-Jun-08 07:00N 01°17' E 103°40'2 3.0
2018-Jun-08 06:26N 01°18' E 103°41'0 0.0
2018-Jun-08 05:47N 01°18' E 103°41'0 0.0
2018-Jun-08 05:28N 01°18' E 103°41'0 0.0
2018-Jun-08 04:55N 01°18' E 103°41'0 0.0
2018-Jun-08 04:29N 01°18' E 103°41'0 0.0
2018-Jun-08 03:56N 01°18' E 103°41'0 0.0
2018-Jun-08 03:29N 01°18' E 103°41'0 0.0
2018-Jun-08 02:53N 01°18' E 103°41'0 0.0
2018-Jun-08 02:23N 01°18' E 103°41'0 0.0
2018-Jun-08 01:59N 01°18' E 103°41'0 0.0
2018-Jun-08 01:26N 01°18' E 103°41'0 0.0
2018-Jun-08 00:59N 01°18' E 103°41'0 0.0
2018-Jun-08 00:25N 01°18' E 103°41'0 0.0
2018-Jun-07 23:58N 01°18' E 103°41'0 0.0
2018-Jun-07 23:26N 01°18' E 103°41'0 0.0
2018-Jun-07 22:59N 01°18' E 103°41'0 0.0
2018-Jun-07 22:28N 01°18' E 103°41'0 0.0
2018-Jun-07 21:50N 01°18' E 103°41'0 0.0
2018-Jun-07 21:20N 01°18' E 103°41'0 0.0
2018-Jun-07 20:59N 01°18' E 103°41'0 0.0
2018-Jun-07 20:26N 01°18' E 103°41'0 0.0
2018-Jun-07 19:56N 01°18' E 103°41'0 0.0
2018-Jun-07 19:26N 01°18' E 103°41'0 0.0
2018-Jun-07 18:52N 01°18' E 103°41'0 0.0
2018-Jun-07 18:29N 01°18' E 103°41'0 0.0
2018-Jun-07 17:59N 01°18' E 103°41'0 0.0
2018-Jun-07 17:29N 01°18' E 103°41'0 0.0
2018-Jun-07 16:56N 01°18' E 103°41'0 0.0
2018-Jun-07 16:28N 01°18' E 103°41'0 0.0
2018-Jun-07 15:56N 01°18' E 103°41'0 0.0
2018-Jun-07 15:19N 01°18' E 103°41'0 0.0
2018-Jun-07 14:56N 01°18' E 103°41'0 0.0
2018-Jun-07 14:26N 01°18' E 103°41'0 0.0
2018-Jun-07 13:56N 01°18' E 103°41'0 0.0
2018-Jun-07 13:29N 01°18' E 103°41'0 0.0
2018-Jun-07 12:49N 01°18' E 103°41'0 0.0
2018-Jun-07 12:25N 01°18' E 103°41'0 0.0
2018-Jun-07 11:56N 01°18' E 103°41'0 0.0
2018-Jun-07 11:25N 01°18' E 103°41'0 0.0
2018-Jun-07 10:52N 01°18' E 103°41'0 0.0
2018-Jun-07 10:29N 01°18' E 103°41'0 0.0
2018-Jun-07 09:56N 01°18' E 103°41'0 0.0
2018-Jun-07 09:29N 01°18' E 103°41'0 0.0
2018-Jun-07 08:59N 01°18' E 103°41'0 0.0
2018-Jun-07 08:28N 01°18' E 103°41'0 0.0
2018-Jun-07 07:56N 01°18' E 103°41'0 0.0
2018-Jun-07 07:25N 01°18' E 103°41'0 0.0
2018-Jun-07 06:53N 01°18' E 103°41'0 0.0
2018-Jun-07 06:26N 01°18' E 103°41'0 0.0
2018-Jun-07 05:53N 01°18' E 103°41'0 0.0
2018-Jun-07 05:28N 01°18' E 103°41'0 0.0
2018-Jun-07 04:55N 01°18' E 103°41'0 0.0
2018-Jun-07 04:29N 01°18' E 103°41'0 0.0
2018-Jun-07 03:56N 01°18' E 103°41'0 0.0
2018-Jun-07 03:28N 01°18' E 103°41'1 2.4
2018-Jun-07 03:00N 01°17' E 103°40'3 7.0
2018-Jun-07 02:30N 01°14' E 103°40'4 7.7
2018-Jun-07 02:00N 01°15' E 103°43'4 7.9
2018-Jun-07 01:30N 01°14' E 103°47'2 2.6
2018-Jun-07 00:56N 01°13' E 103°48'0 0.0
2018-Jun-07 00:29N 01°13' E 103°48'0 0.1
2018-Jun-06 23:58N 01°13' E 103°48'0 0.0
2018-Jun-06 23:28N 01°13' E 103°48'0 0.1
2018-Jun-06 22:58N 01°13' E 103°48'0 0.1
2018-Jun-06 22:29N 01°14' E 103°48'0 0.1
2018-Jun-06 21:59N 01°14' E 103°48'0 0.0
2018-Jun-06 21:29N 01°14' E 103°48'0 0.1
2018-Jun-06 20:58N 01°14' E 103°48'0 0.0
2018-Jun-06 20:29N 01°14' E 103°48'0 0.0
2018-Jun-06 19:59N 01°14' E 103°48'0 0.0
2018-Jun-06 19:28N 01°14' E 103°48'0 0.0
2018-Jun-06 18:56N 01°14' E 103°48'0 0.0
2018-Jun-06 18:28N 01°14' E 103°48'0 0.1
2018-Jun-06 17:52N 01°14' E 103°48'0 0.1
2018-Jun-06 17:28N 01°14' E 103°48'0 0.0
2018-Jun-06 16:56N 01°14' E 103°48'0 0.1
2018-Jun-06 16:26N 01°14' E 103°48'0 0.0
2018-Jun-06 15:58N 01°14' E 103°48'0 0.1
2018-Jun-06 15:29N 01°14' E 103°48'0 0.0
2018-Jun-06 14:55N 01°14' E 103°48'0 0.1
2018-Jun-06 14:25N 01°14' E 103°48'0 0.0
2018-Jun-06 13:53N 01°14' E 103°48'0 0.0
2018-Jun-06 13:25N 01°14' E 103°48'0 0.1
2018-Jun-06 12:56N 01°14' E 103°48'0 0.0
2018-Jun-06 12:25N 01°14' E 103°48'0 0.1
2018-Jun-06 11:59N 01°14' E 103°48'0 0.0
2018-Jun-06 11:26N 01°14' E 103°48'0 0.0
2018-Jun-06 10:49N 01°14' E 103°48'0 0.0
2018-Jun-06 10:26N 01°14' E 103°48'0 0.0
2018-Jun-06 09:59N 01°14' E 103°48'0 0.0
2018-Jun-06 09:26N 01°14' E 103°48'0 0.1
2018-Jun-06 08:49N 01°14' E 103°48'0 0.0
2018-Jun-06 08:28N 01°14' E 103°48'0 0.2
2018-Jun-06 07:46N 01°14' E 103°48'0 0.1
2018-Jun-06 07:28N 01°14' E 103°48'0 0.1
2018-Jun-06 06:55N 01°13' E 103°48'0 0.1
2018-Jun-06 06:28N 01°14' E 103°48'0 0.0
2018-Jun-06 05:59N 01°14' E 103°48'0 0.0
2018-Jun-06 05:28N 01°14' E 103°48'0 0.1
2018-Jun-06 04:58N 01°13' E 103°48'0 0.1
2018-Jun-06 04:26N 01°13' E 103°48'0 0.0
2018-Jun-06 03:55N 01°13' E 103°48'0 0.0
2018-Jun-06 03:29N 01°13' E 103°48'0 0.0
2018-Jun-06 02:58N 01°13' E 103°48'0 0.1
2018-Jun-06 02:25N 01°13' E 103°48'0 0.0
2018-Jun-06 01:55N 01°13' E 103°48'0 0.0
2018-Jun-06 01:28N 01°13' E 103°48'0 0.0
2018-Jun-06 01:00N 01°13' E 103°48'0 0.0
2018-Jun-06 00:27N 01°13' E 103°48'0 0.1
2018-Jun-06 00:00N 01°13' E 103°48'1 1.1
2018-Jun-05 23:30N 01°13' E 103°49'3 5.2
2018-Jun-05 23:01N 01°13' E 103°51'5 8.8
2018-Jun-05 22:29N 01°14' E 103°56'3 6.9
2018-Jun-05 21:59N 01°16' E 103°59'3 5.1
2018-Jun-05 21:30N 01°16' E 104°01'3 5.8
2018-Jun-05 20:59N 01°17' E 104°04'4 8.3
2018-Jun-05 20:30N 01°17' E 104°08'3 6.7
2018-Jun-05 20:00N 01°18' E 104°12'4 8.3
2018-Jun-05 19:30N 01°18' E 104°16'3 6.6
2018-Jun-05 19:00N 01°19' E 104°19'510.0
2018-Jun-05 18:30N 01°22' E 104°23'611.2
2018-Jun-05 17:58N 01°26' E 104°27'611.2
2018-Jun-05 17:27N 01°30' E 104°32'611.8
2018-Jun-05 16:58N 01°30' E 104°37'711.2
2018-Jun-05 16:19N 01°31' E 104°45'411.2
2018-Jun-05 15:59N 01°28' E 104°48'712.3
2018-Jun-05 15:26N 01°22' E 104°50'711.4
2018-Jun-05 14:50N 01°16' E 104°53'611.4
2018-Jun-05 14:17N 01°11' E 104°56'  
Track history (hours):
 
Tides and Currents Weather Stations Pressure Air Temp Water Temp Dewpoint Dewpoint Depression Visibility Wind Speed Wind Dir Waves Ship Positions

Sti Virtus

Last reported at 2018-Jun-12 14:05 UTC. Time now 2018-Jun-20 15:08 UTC.
Position N 01°20' E 104°44'.
Warning: this ship's position is 8 days out of date.

Length 183 m; draft 11.3 m.

Type: Tanker. MMSI: 538005171.

Date/timePositionNaut miles runAvg speedWind from/ knotsBaromVisibWave heightAir tempDewpointWater temp
2018-Jun-12 14:05N 01°20' E 104°44'1510.7
2018-Jun-12 12:40N 01°23' E 104°29'411.1
2018-Jun-12 12:19N 01°22' E 104°25'311.2
2018-Jun-12 12:00N 01°19' E 104°22'610.3
2018-Jun-12 11:27N 01°16' E 104°17'511.1
2018-Jun-12 10:58N 01°16' E 104°12'511.3
2018-Jun-12 10:29N 01°15' E 104°07'510.8
2018-Jun-12 10:00N 01°14' E 104°01'5 9.8
2018-Jun-12 09:30N 01°15' E 103°57'2 3.3
2018-Jun-12 09:00N 01°16' E 103°55'0 0.2
2018-Jun-12 08:30N 01°16' E 103°55'2 3.5
2018-Jun-12 08:00N 01°14' E 103°54'4 8.3
2018-Jun-12 07:30N 01°12' E 103°50'5 9.4
2018-Jun-12 07:00N 01°15' E 103°46'4 8.3
2018-Jun-12 06:30N 01°14' E 103°42'1 1.8
2018-Jun-12 05:55N 01°15' E 103°41'0 0.0
2018-Jun-12 05:22N 01°15' E 103°41'0 0.0
2018-Jun-12 04:59N 01°15' E 103°41'0 0.1
2018-Jun-12 04:28N 01°15' E 103°41'0 0.0
2018-Jun-12 03:52N 01°15' E 103°41'0 0.1
2018-Jun-12 03:10N 01°15' E 103°41'0 0.1
2018-Jun-12 02:46N 01°15' E 103°41'0 0.0
2018-Jun-12 02:22N 01°15' E 103°41'0 0.1
2018-Jun-12 01:53N 01°15' E 103°41'0 0.1
2018-Jun-12 01:28N 01°15' E 103°41'0 0.1
2018-Jun-12 00:46N 01°15' E 103°41'0 0.1
2018-Jun-12 00:07N 01°15' E 103°41'0 0.2
2018-Jun-11 23:49N 01°15' E 103°41'0 0.0
2018-Jun-11 23:25N 01°15' E 103°41'0 0.1
2018-Jun-11 22:58N 01°15' E 103°41'0 0.1
2018-Jun-11 22:28N 01°15' E 103°41'0 0.0
2018-Jun-11 21:52N 01°15' E 103°41'0 0.2
2018-Jun-11 21:28N 01°15' E 103°41'0 0.1
2018-Jun-11 20:55N 01°15' E 103°41'0 0.0
2018-Jun-11 20:22N 01°15' E 103°41'0 0.1
2018-Jun-11 19:52N 01°15' E 103°41'0 0.0
2018-Jun-11 19:19N 01°15' E 103°41'0 0.1
2018-Jun-11 18:28N 01°15' E 103°41'0 0.1
2018-Jun-11 17:19N 01°15' E 103°41'0 0.0
2018-Jun-11 16:59N 01°15' E 103°41'0 0.0
2018-Jun-11 16:28N 01°15' E 103°41'0 0.0
2018-Jun-11 15:59N 01°15' E 103°41'0 0.1
2018-Jun-11 15:10N 01°15' E 103°41'0 0.0
2018-Jun-11 14:58N 01°15' E 103°41'0 0.0
2018-Jun-11 14:28N 01°15' E 103°41'0 0.1
2018-Jun-11 13:53N 01°15' E 103°41'0 0.0
2018-Jun-11 13:22N 01°15' E 103°41'0 0.0
2018-Jun-11 12:58N 01°15' E 103°41'0 0.1
2018-Jun-11 12:22N 01°15' E 103°41'0 0.0
2018-Jun-11 11:25N 01°15' E 103°41'0 0.1
2018-Jun-11 10:49N 01°15' E 103°41'0 0.1
2018-Jun-11 10:10N 01°15' E 103°41'0 0.3
2018-Jun-11 09:59N 01°15' E 103°41'0 0.1
2018-Jun-11 09:16N 01°15' E 103°41'0 0.2
2018-Jun-11 08:58N 01°15' E 103°41'0 0.0
2018-Jun-11 08:22N 01°15' E 103°41'0 0.0
2018-Jun-11 07:59N 01°15' E 103°41'0 0.0
2018-Jun-11 06:43N 01°15' E 103°41'0 0.0
2018-Jun-11 06:16N 01°15' E 103°41'0 0.2
2018-Jun-11 05:55N 01°15' E 103°41'0 0.1
2018-Jun-11 05:28N 01°15' E 103°41'0 0.0
2018-Jun-11 04:43N 01°15' E 103°41'0 0.0
2018-Jun-11 03:43N 01°15' E 103°41'0 0.0
2018-Jun-11 03:22N 01°15' E 103°41'0 0.2
2018-Jun-11 02:58N 01°15' E 103°41'0 0.1
2018-Jun-11 02:22N 01°15' E 103°41'0 0.0
2018-Jun-11 01:58N 01°15' E 103°41'0 0.1
2018-Jun-11 01:25N 01°15' E 103°41'0 0.1
2018-Jun-11 00:47N 01°15' E 103°41'0 0.1
2018-Jun-11 00:19N 01°15' E 103°41'0 0.1
2018-Jun-10 23:49N 01°15' E 103°41'0 0.0
2018-Jun-10 23:16N 01°15' E 103°41'0 0.0
2018-Jun-10 22:46N 01°15' E 103°41'0 0.0
2018-Jun-10 22:29N 01°15' E 103°41'0 0.0
2018-Jun-10 21:58N 01°15' E 103°41'0 0.1
2018-Jun-10 21:25N 01°15' E 103°41'0 0.1
2018-Jun-10 20:58N 01°15' E 103°41'0 0.1
2018-Jun-10 20:28N 01°15' E 103°41'0 0.1
2018-Jun-10 19:53N 01°15' E 103°41'0 0.1
2018-Jun-10 19:22N 01°15' E 103°41'0 0.2
2018-Jun-10 18:59N 01°15' E 103°41'0 0.1
2018-Jun-10 18:27N 01°15' E 103°41'0 0.1
2018-Jun-10 17:52N 01°15' E 103°41'0 0.2
2018-Jun-10 17:28N 01°15' E 103°41'0 0.1
2018-Jun-10 16:58N 01°15' E 103°41'0 0.0
2018-Jun-10 16:27N 01°15' E 103°41'0 0.1
2018-Jun-10 15:58N 01°15' E 103°41'0 0.0
2018-Jun-10 15:30N 01°15' E 103°41'1 2.7
2018-Jun-10 15:00N 01°14' E 103°42'2 5.1
2018-Jun-10 14:31N 01°15' E 103°39'3 3.3
2018-Jun-10 13:30N 01°17' E 103°42'0 0.0
2018-Jun-10 12:46N 01°17' E 103°42'0 0.0
2018-Jun-10 12:29N 01°17' E 103°42'0 0.0
2018-Jun-10 11:58N 01°17' E 103°42'0 0.0
2018-Jun-10 11:19N 01°17' E 103°42'0 0.0
2018-Jun-10 10:58N 01°17' E 103°42'0 0.0
2018-Jun-10 10:26N 01°17' E 103°42'0 0.0
2018-Jun-10 09:59N 01°17' E 103°42'0 0.0
2018-Jun-10 09:20N 01°17' E 103°42'0 0.0
2018-Jun-10 08:13N 01°17' E 103°42'0 0.0
2018-Jun-10 07:52N 01°17' E 103°42'0 0.0
2018-Jun-10 07:28N 01°17' E 103°42'0 0.0
2018-Jun-10 06:56N 01°17' E 103°42'0 0.0
2018-Jun-10 06:25N 01°17' E 103°42'0 0.0
2018-Jun-10 05:53N 01°17' E 103°42'0 0.0
2018-Jun-10 05:26N 01°17' E 103°42'0 0.0
2018-Jun-10 04:55N 01°17' E 103°42'0 0.0
2018-Jun-10 04:23N 01°17' E 103°42'0 0.0
2018-Jun-10 03:59N 01°17' E 103°42'0 0.0
2018-Jun-10 03:28N 01°17' E 103°42'0 0.0
2018-Jun-10 02:58N 01°17' E 103°42'0 0.0
2018-Jun-10 02:28N 01°17' E 103°42'0 0.0
2018-Jun-10 01:59N 01°17' E 103°42'0 0.0
2018-Jun-10 01:25N 01°17' E 103°42'0 0.0
2018-Jun-10 00:59N 01°17' E 103°42'0 0.0
2018-Jun-10 00:29N 01°17' E 103°42'0 0.0
2018-Jun-09 23:55N 01°17' E 103°42'0 0.0
2018-Jun-09 23:28N 01°17' E 103°42'0 0.0
2018-Jun-09 22:54N 01°17' E 103°42'0 0.0
2018-Jun-09 22:19N 01°17' E 103°42'0 0.0
2018-Jun-09 21:57N 01°17' E 103°42'0 0.0
2018-Jun-09 21:30N 01°17' E 103°42'0 0.0
2018-Jun-09 21:00N 01°17' E 103°42'0 0.0
2018-Jun-09 20:30N 01°17' E 103°42'0 0.0
2018-Jun-09 19:59N 01°17' E 103°42'0 0.0
2018-Jun-09 19:20N 01°17' E 103°42'0 0.0
2018-Jun-09 18:52N 01°17' E 103°42'0 0.0
2018-Jun-09 18:29N 01°17' E 103°42'0 0.0
2018-Jun-09 17:53N 01°17' E 103°42'0 0.0
2018-Jun-09 17:23N 01°17' E 103°42'0 0.0
2018-Jun-09 16:58N 01°17' E 103°42'0 0.0
2018-Jun-09 16:17N 01°17' E 103°42'0 0.0
2018-Jun-09 15:58N 01°17' E 103°42'0 0.0
2018-Jun-09 15:25N 01°17' E 103°42'0 0.0
2018-Jun-09 14:29N 01°17' E 103°42'0 0.0
2018-Jun-09 13:58N 01°17' E 103°42'0 0.0
2018-Jun-09 13:16N 01°17' E 103°42'0 0.0
2018-Jun-09 12:22N 01°17' E 103°42'0 0.0
2018-Jun-09 11:59N 01°17' E 103°42'0 0.0
2018-Jun-09 11:19N 01°17' E 103°42'0 0.0
2018-Jun-09 10:49N 01°17' E 103°42'0 0.0
2018-Jun-09 10:22N 01°17' E 103°42'0 0.0
2018-Jun-09 09:49N 01°17' E 103°42'0 0.0
2018-Jun-09 09:22N 01°17' E 103°42'0 0.0
2018-Jun-09 08:58N 01°17' E 103°42'0 0.0
2018-Jun-09 08:10N 01°17' E 103°42'0 0.0
2018-Jun-09 07:46N 01°17' E 103°42'0 0.0
2018-Jun-09 07:28N 01°17' E 103°42'0 0.0
2018-Jun-09 06:31N 01°17' E 103°42'0 0.0
2018-Jun-09 06:29N 01°17' E 103°42'0 0.0
2018-Jun-09 05:46N 01°17' E 103°42'0 0.0
2018-Jun-09 05:28N 01°17' E 103°42'0 0.0
2018-Jun-09 04:58N 01°17' E 103°42'0 0.0
2018-Jun-09 04:28N 01°17' E 103°42'0 0.0
2018-Jun-09 03:55N 01°17' E 103°42'0 0.0
2018-Jun-09 03:25N 01°17' E 103°42'0 0.0
2018-Jun-09 02:55N 01°17' E 103°42'0 0.0
2018-Jun-09 02:28N 01°17' E 103°42'0 0.0
2018-Jun-09 01:55N 01°17' E 103°42'0 0.0
2018-Jun-09 00:40N 01°17' E 103°42'0 0.0
2018-Jun-09 00:28N 01°17' E 103°42'0 0.0
2018-Jun-08 23:01N 01°17' E 103°42'0 0.0
2018-Jun-08 22:37N 01°17' E 103°42'0 0.0
2018-Jun-08 22:16N 01°17' E 103°42'0 0.0
2018-Jun-08 21:58N 01°17' E 103°42'0 0.0
2018-Jun-08 20:55N 01°17' E 103°42'0 0.0
2018-Jun-08 20:19N 01°17' E 103°42'0 0.0
2018-Jun-08 19:47N 01°17' E 103°42'0 0.0
2018-Jun-08 19:23N 01°17' E 103°42'0 0.0
2018-Jun-08 18:58N 01°17' E 103°42'0 0.0
2018-Jun-08 18:14N 01°17' E 103°42'0 0.0
2018-Jun-08 17:52N 01°17' E 103°42'0 0.0
2018-Jun-08 17:25N 01°17' E 103°42'0 0.0
2018-Jun-08 16:58N 01°17' E 103°42'0 0.0
2018-Jun-08 16:30N 01°17' E 103°42'0 0.0
2018-Jun-08 15:58N 01°17' E 103°42'0 0.1
2018-Jun-08 15:30N 01°17' E 103°42'1 1.6
2018-Jun-08 15:00N 01°18' E 103°41'3 5.6
2018-Jun-08 14:30N 01°16' E 103°39'4 7.1
2018-Jun-08 14:00N 01°13' E 103°41'1 1.3
2018-Jun-08 13:23N 01°12' E 103°41'0 0.2
2018-Jun-08 12:59N 01°12' E 103°42'0 0.2
2018-Jun-08 12:26N 01°12' E 103°42'0 0.1
2018-Jun-08 11:56N 01°12' E 103°42'0 0.0
2018-Jun-08 11:26N 01°12' E 103°42'0 0.1
2018-Jun-08 10:53N 01°12' E 103°42'0 0.1
2018-Jun-08 10:28N 01°12' E 103°42'0 0.0
2018-Jun-08 09:50N 01°12' E 103°42'0 0.1
2018-Jun-08 09:29N 01°12' E 103°42'0 0.1
2018-Jun-08 08:52N 01°12' E 103°42'0 0.0
2018-Jun-08 08:29N 01°12' E 103°42'0 0.1
2018-Jun-08 08:00N 01°12' E 103°42'2 3.2
2018-Jun-08 07:30N 01°13' E 103°40'4 7.7
2018-Jun-08 07:00N 01°17' E 103°40'2 3.0
2018-Jun-08 06:26N 01°18' E 103°41'0 0.0
2018-Jun-08 05:47N 01°18' E 103°41'0 0.0
2018-Jun-08 05:28N 01°18' E 103°41'0 0.0
2018-Jun-08 04:55N 01°18' E 103°41'0 0.0
2018-Jun-08 04:29N 01°18' E 103°41'0 0.0
2018-Jun-08 03:56N 01°18' E 103°41'0 0.0
2018-Jun-08 03:29N 01°18' E 103°41'0 0.0
2018-Jun-08 02:53N 01°18' E 103°41'0 0.0
2018-Jun-08 02:23N 01°18' E 103°41'0 0.0
2018-Jun-08 01:59N 01°18' E 103°41'0 0.0
2018-Jun-08 01:26N 01°18' E 103°41'0 0.0
2018-Jun-08 00:59N 01°18' E 103°41'0 0.0
2018-Jun-08 00:25N 01°18' E 103°41'0 0.0
2018-Jun-07 23:58N 01°18' E 103°41'0 0.0
2018-Jun-07 23:26N 01°18' E 103°41'0 0.0
2018-Jun-07 22:59N 01°18' E 103°41'0 0.0
2018-Jun-07 22:28N 01°18' E 103°41'0 0.0
2018-Jun-07 21:50N 01°18' E 103°41'0 0.0
2018-Jun-07 21:20N 01°18' E 103°41'0 0.0
2018-Jun-07 20:59N 01°18' E 103°41'0 0.0
2018-Jun-07 20:26N 01°18' E 103°41'0 0.0
2018-Jun-07 19:56N 01°18' E 103°41'0 0.0
2018-Jun-07 19:26N 01°18' E 103°41'0 0.0
2018-Jun-07 18:52N 01°18' E 103°41'0 0.0
2018-Jun-07 18:29N 01°18' E 103°41'0 0.0
2018-Jun-07 17:59N 01°18' E 103°41'0 0.0
2018-Jun-07 17:29N 01°18' E 103°41'0 0.0
2018-Jun-07 16:56N 01°18' E 103°41'0 0.0
2018-Jun-07 16:28N 01°18' E 103°41'0 0.0
2018-Jun-07 15:56N 01°18' E 103°41'0 0.0
2018-Jun-07 15:19N 01°18' E 103°41'0 0.0
2018-Jun-07 14:56N 01°18' E 103°41'0 0.0
2018-Jun-07 14:26N 01°18' E 103°41'0 0.0
2018-Jun-07 13:56N 01°18' E 103°41'0 0.0
2018-Jun-07 13:29N 01°18' E 103°41'0 0.0
2018-Jun-07 12:49N 01°18' E 103°41'0 0.0
2018-Jun-07 12:25N 01°18' E 103°41'0 0.0
2018-Jun-07 11:56N 01°18' E 103°41'0 0.0
2018-Jun-07 11:25N 01°18' E 103°41'0 0.0
2018-Jun-07 10:52N 01°18' E 103°41'0 0.0
2018-Jun-07 10:29N 01°18' E 103°41'0 0.0
2018-Jun-07 09:56N 01°18' E 103°41'0 0.0
2018-Jun-07 09:29N 01°18' E 103°41'0 0.0
2018-Jun-07 08:59N 01°18' E 103°41'0 0.0
2018-Jun-07 08:28N 01°18' E 103°41'0 0.0
2018-Jun-07 07:56N 01°18' E 103°41'0 0.0
2018-Jun-07 07:25N 01°18' E 103°41'0 0.0
2018-Jun-07 06:53N 01°18' E 103°41'0 0.0
2018-Jun-07 06:26N 01°18' E 103°41'0 0.0
2018-Jun-07 05:53N 01°18' E 103°41'0 0.0
2018-Jun-07 05:28N 01°18' E 103°41'0 0.0
2018-Jun-07 04:55N 01°18' E 103°41'0 0.0
2018-Jun-07 04:29N 01°18' E 103°41'0 0.0
2018-Jun-07 03:56N 01°18' E 103°41'0 0.0
2018-Jun-07 03:28N 01°18' E 103°41'1 2.4
2018-Jun-07 03:00N 01°17' E 103°40'3 7.0
2018-Jun-07 02:30N 01°14' E 103°40'4 7.7
2018-Jun-07 02:00N 01°15' E 103°43'4 7.9
2018-Jun-07 01:30N 01°14' E 103°47'2 2.6
2018-Jun-07 00:56N 01°13' E 103°48'0 0.0
2018-Jun-07 00:29N 01°13' E 103°48'0 0.1
2018-Jun-06 23:58N 01°13' E 103°48'0 0.0
2018-Jun-06 23:28N 01°13' E 103°48'0 0.1
2018-Jun-06 22:58N 01°13' E 103°48'0 0.1
2018-Jun-06 22:29N 01°14' E 103°48'0 0.1
2018-Jun-06 21:59N 01°14' E 103°48'0 0.0
2018-Jun-06 21:29N 01°14' E 103°48'0 0.1
2018-Jun-06 20:58N 01°14' E 103°48'0 0.0
2018-Jun-06 20:29N 01°14' E 103°48'0 0.0
2018-Jun-06 19:59N 01°14' E 103°48'0 0.0
2018-Jun-06 19:28N 01°14' E 103°48'0 0.0
2018-Jun-06 18:56N 01°14' E 103°48'0 0.0
2018-Jun-06 18:28N 01°14' E 103°48'0 0.1
2018-Jun-06 17:52N 01°14' E 103°48'0 0.1
2018-Jun-06 17:28N 01°14' E 103°48'0 0.0
2018-Jun-06 16:56N 01°14' E 103°48'0 0.1
2018-Jun-06 16:26N 01°14' E 103°48'0 0.0
2018-Jun-06 15:58N 01°14' E 103°48'0 0.1
2018-Jun-06 15:29N 01°14' E 103°48'0 0.0
2018-Jun-06 14:55N 01°14' E 103°48'0 0.1
2018-Jun-06 14:25N 01°14' E 103°48'0 0.0
2018-Jun-06 13:53N 01°14' E 103°48'0 0.0
2018-Jun-06 13:25N 01°14' E 103°48'0 0.1
2018-Jun-06 12:56N 01°14' E 103°48'0 0.0
2018-Jun-06 12:25N 01°14' E 103°48'0 0.1
2018-Jun-06 11:59N 01°14' E 103°48'0 0.0
2018-Jun-06 11:26N 01°14' E 103°48'0 0.0
2018-Jun-06 10:49N 01°14' E 103°48'0 0.0
2018-Jun-06 10:26N 01°14' E 103°48'0 0.0
2018-Jun-06 09:59N 01°14' E 103°48'0 0.0
2018-Jun-06 09:26N 01°14' E 103°48'0 0.1
2018-Jun-06 08:49N 01°14' E 103°48'0 0.0
2018-Jun-06 08:28N 01°14' E 103°48'0 0.2
2018-Jun-06 07:46N 01°14' E 103°48'0 0.1
2018-Jun-06 07:28N 01°14' E 103°48'0 0.1
2018-Jun-06 06:55N 01°13' E 103°48'0 0.1
2018-Jun-06 06:28N 01°14' E 103°48'0 0.0
2018-Jun-06 05:59N 01°14' E 103°48'0 0.0
2018-Jun-06 05:28N 01°14' E 103°48'0 0.1
2018-Jun-06 04:58N 01°13' E 103°48'0 0.1
2018-Jun-06 04:26N 01°13' E 103°48'0 0.0
2018-Jun-06 03:55N 01°13' E 103°48'0 0.0
2018-Jun-06 03:29N 01°13' E 103°48'0 0.0
2018-Jun-06 02:58N 01°13' E 103°48'0 0.1
2018-Jun-06 02:25N 01°13' E 103°48'0 0.0
2018-Jun-06 01:55N 01°13' E 103°48'0 0.0
2018-Jun-06 01:28N 01°13' E 103°48'0 0.0
2018-Jun-06 01:00N 01°13' E 103°48'0 0.0
2018-Jun-06 00:27N 01°13' E 103°48'0 0.1
2018-Jun-06 00:00N 01°13' E 103°48'1 1.1
2018-Jun-05 23:30N 01°13' E 103°49'3 5.2
2018-Jun-05 23:01N 01°13' E 103°51'5 8.8
2018-Jun-05 22:29N 01°14' E 103°56'3 6.9
2018-Jun-05 21:59N 01°16' E 103°59'3 5.1
2018-Jun-05 21:30N 01°16' E 104°01'3 5.8
2018-Jun-05 20:59N 01°17' E 104°04'4 8.3
2018-Jun-05 20:30N 01°17' E 104°08'3 6.7
2018-Jun-05 20:00N 01°18' E 104°12'4 8.3
2018-Jun-05 19:30N 01°18' E 104°16'3 6.6
2018-Jun-05 19:00N 01°19' E 104°19'510.0
2018-Jun-05 18:30N 01°22' E 104°23'611.2
2018-Jun-05 17:58N 01°26' E 104°27'611.2
2018-Jun-05 17:27N 01°30' E 104°32'611.8
2018-Jun-05 16:58N 01°30' E 104°37'711.2
2018-Jun-05 16:19N 01°31' E 104°45'411.2
2018-Jun-05 15:59N 01°28' E 104°48'712.3
2018-Jun-05 15:26N 01°22' E 104°50'711.4
2018-Jun-05 14:50N 01°16' E 104°53'611.4
2018-Jun-05 14:17N 01°11' E 104°56'  

Dump ship's entire track history